createdAt,value
2023-05-13T00:01:50.073Z,6.70
2023-05-13T00:04:16.749Z,6.05
2023-05-13T00:06:43.306Z,6.80
2023-05-13T00:09:09.971Z,5.57
2023-05-13T00:11:36.437Z,5.85
2023-05-13T00:14:03.851Z,5.88
2023-05-13T00:16:30.443Z,5.65
2023-05-13T00:18:57.050Z,5.90
2023-05-13T00:21:23.751Z,7.10
2023-05-13T00:23:50.231Z,6.80
2023-05-13T00:26:16.827Z,8.23
2023-05-13T00:28:43.408Z,6.85
2023-05-13T00:31:10.227Z,6.35
2023-05-13T00:33:36.703Z,7.15
2023-05-13T00:36:03.870Z,5.85
2023-05-13T00:38:30.257Z,11.05
2023-05-13T00:40:57.081Z,6.65
2023-05-13T00:43:23.487Z,6.72
2023-05-13T00:45:50.666Z,5.82
2023-05-13T00:48:17.647Z,8.13
2023-05-13T00:50:44.831Z,5.18
2023-05-13T00:53:12.721Z,6.82
2023-05-13T00:55:46.060Z,5.70
2023-05-13T00:58:13.592Z,6.38
2023-05-13T01:00:54.170Z,7.68
2023-05-13T01:03:33.500Z,6.38
2023-05-13T01:06:12.327Z,5.50
2023-05-13T01:09:02.434Z,6.22
2023-05-13T01:11:35.736Z,7.22
2023-05-13T01:14:25.288Z,6.07
2023-05-13T01:17:11.148Z,7.43
2023-05-13T01:19:56.086Z,6.50
2023-05-13T01:22:22.453Z,7.80
2023-05-13T01:24:50.535Z,5.85
2023-05-13T01:27:17.436Z,7.53
2023-05-13T01:29:45.271Z,6.90
2023-05-13T01:32:12.029Z,6.18
2023-05-13T01:34:40.747Z,6.35
2023-05-13T01:37:07.955Z,6.53
2023-05-13T01:39:37.869Z,7.18
2023-05-13T01:42:04.607Z,6.50
2023-05-13T01:44:31.327Z,8.35
2023-05-13T01:46:57.751Z,7.93
2023-05-13T01:49:24.204Z,7.45
2023-05-13T01:51:50.591Z,7.00
2023-05-13T01:54:17.059Z,8.73
2023-05-13T01:56:43.515Z,6.60
2023-05-13T01:59:11.002Z,5.95
2023-05-13T02:01:37.431Z,7.28
2023-05-13T02:04:04.185Z,6.82
2023-05-13T02:06:32.145Z,6.63
2023-05-13T02:08:59.098Z,8.48
2023-05-13T02:11:25.626Z,6.93
2023-05-13T02:13:52.026Z,8.25
2023-05-13T02:16:18.761Z,7.20
2023-05-13T02:18:45.166Z,7.78
2023-05-13T02:21:11.568Z,7.88
2023-05-13T02:23:38.055Z,7.80
2023-05-13T02:26:04.636Z,6.85
2023-05-13T02:28:31.048Z,8.43
2023-05-13T02:30:57.514Z,9.02
2023-05-13T02:33:23.902Z,8.02
2023-05-13T02:35:50.366Z,9.32
2023-05-13T02:38:16.826Z,8.63
2023-05-13T02:40:43.361Z,8.77
2023-05-13T02:43:09.814Z,8.02
2023-05-13T02:45:36.346Z,10.43
2023-05-13T02:48:03.090Z,8.82
2023-05-13T02:50:29.577Z,9.68
2023-05-13T02:52:55.981Z,8.15
2023-05-13T02:55:22.529Z,9.55
2023-05-13T02:57:49.053Z,9.95
2023-05-13T03:00:15.914Z,9.52
2023-05-13T03:02:42.482Z,8.70
2023-05-13T03:05:09.591Z,8.07
2023-05-13T03:07:36.057Z,8.35
2023-05-13T03:10:02.498Z,9.43
2023-05-13T03:12:29.088Z,9.93
2023-05-13T03:14:55.580Z,11.25
2023-05-13T03:17:22.152Z,10.05
2023-05-13T03:19:48.603Z,12.10
2023-05-13T03:22:15.046Z,10.18
2023-05-13T03:24:42.728Z,10.98
2023-05-13T03:27:10.317Z,11.25
2023-05-13T03:29:36.769Z,9.07
2023-05-13T03:32:04.594Z,9.35
2023-05-13T03:34:31.011Z,12.45
2023-05-13T03:36:57.524Z,9.18
2023-05-13T03:39:23.902Z,9.68
2023-05-13T03:41:50.384Z,11.30
2023-05-13T03:44:16.793Z,9.63
2023-05-13T03:46:44.545Z,10.27
2023-05-13T03:49:11.118Z,11.52
2023-05-13T03:51:37.532Z,12.18
2023-05-13T03:54:03.951Z,11.25
2023-05-13T03:56:30.603Z,11.73
2023-05-13T03:58:56.952Z,9.95
2023-05-13T04:01:23.326Z,11.43
2023-05-13T04:03:50.273Z,9.98
2023-05-13T04:06:16.856Z,9.23
2023-05-13T04:08:43.599Z,12.95
2023-05-13T04:11:10.060Z,10.90
2023-05-13T04:13:36.614Z,11.70
2023-05-13T04:16:03.666Z,10.55
2023-05-13T04:18:31.266Z,12.45
2023-05-13T04:20:57.736Z,12.10
2023-05-13T04:23:24.145Z,12.05
2023-05-13T04:25:53.616Z,14.75
2023-05-13T04:28:20.808Z,13.18
2023-05-13T04:30:47.247Z,14.95
2023-05-13T04:33:13.690Z,12.35
2023-05-13T04:35:40.252Z,11.88
2023-05-13T04:38:06.835Z,11.32
2023-05-13T04:40:33.224Z,12.48
2023-05-13T04:42:59.635Z,15.02
2023-05-13T04:45:26.159Z,14.95
2023-05-13T04:47:52.798Z,13.07
2023-05-13T04:50:19.513Z,13.05
2023-05-13T04:52:47.509Z,10.77
2023-05-13T04:55:14.050Z,16.10
2023-05-13T04:57:40.542Z,12.48
2023-05-13T05:00:09.346Z,14.20
2023-05-13T05:02:35.810Z,11.80
2023-05-13T05:05:02.316Z,11.63
2023-05-13T05:07:29.023Z,11.70
2023-05-13T05:09:55.500Z,12.85
2023-05-13T05:12:21.932Z,13.25
2023-05-13T05:14:48.446Z,11.68
2023-05-13T05:17:15.773Z,11.73
2023-05-13T05:19:42.261Z,14.00
2023-05-13T05:22:08.718Z,12.82
2023-05-13T05:24:35.059Z,13.68
2023-05-13T05:27:02.159Z,13.55
2023-05-13T05:29:28.694Z,12.43
2023-05-13T05:31:55.556Z,10.77
2023-05-13T05:34:22.249Z,13.45
2023-05-13T05:36:48.750Z,15.00
2023-05-13T05:39:15.561Z,12.57
2023-05-13T05:41:42.130Z,13.23
2023-05-13T05:44:08.494Z,12.25
2023-05-13T05:46:35.157Z,12.45
2023-05-13T05:49:03.526Z,11.82
2023-05-13T05:51:30.033Z,15.23
2023-05-13T05:53:56.430Z,13.35
2023-05-13T05:56:22.930Z,12.57
2023-05-13T05:58:49.378Z,14.82
2023-05-13T06:01:15.917Z,12.77
2023-05-13T06:03:42.361Z,13.77
2023-05-13T06:06:08.857Z,12.68
2023-05-13T06:08:35.302Z,12.40
2023-05-13T06:11:01.805Z,11.27
2023-05-13T06:13:28.652Z,10.95
2023-05-13T06:15:55.366Z,11.77
2023-05-13T06:18:21.938Z,12.13
2023-05-13T06:20:48.406Z,11.77
2023-05-13T06:23:15.074Z,12.90
2023-05-13T06:25:41.875Z,14.65
2023-05-13T06:28:10.797Z,13.40
2023-05-13T06:30:38.025Z,13.90
2023-05-13T06:33:04.893Z,13.93
2023-05-13T06:35:31.500Z,12.63
2023-05-13T06:37:58.085Z,11.25
2023-05-13T06:40:24.784Z,12.30
2023-05-13T06:42:51.262Z,12.30
2023-05-13T06:45:18.497Z,12.30
2023-05-13T06:47:45.035Z,11.73
2023-05-13T06:50:11.526Z,11.85
2023-05-13T06:52:39.434Z,12.02
2023-05-13T06:55:07.419Z,14.55
2023-05-13T06:57:42.401Z,15.68
2023-05-13T07:00:10.497Z,13.88
2023-05-13T07:02:36.924Z,13.10
2023-05-13T07:05:03.519Z,12.00
2023-05-13T07:07:29.981Z,12.60
2023-05-13T07:09:56.503Z,15.75
2023-05-13T07:12:22.994Z,10.85
2023-05-13T07:14:49.364Z,10.20
2023-05-13T07:17:17.167Z,10.20
2023-05-13T07:19:43.776Z,12.00
2023-05-13T07:22:10.147Z,11.30
2023-05-13T07:24:36.545Z,10.35
2023-05-13T07:27:04.498Z,10.50
2023-05-13T07:29:32.295Z,11.02
2023-05-13T07:32:03.636Z,12.55
2023-05-13T07:34:30.058Z,11.05
2023-05-13T07:36:56.850Z,12.80
2023-05-13T07:39:23.701Z,9.52
2023-05-13T07:41:50.156Z,10.68
2023-05-13T07:44:16.596Z,11.43
2023-05-13T07:46:46.033Z,10.50
2023-05-13T07:49:12.552Z,10.35
2023-05-13T07:51:38.931Z,9.40
2023-05-13T07:54:05.379Z,12.32
2023-05-13T07:56:31.834Z,9.68
2023-05-13T07:58:58.237Z,9.00
2023-05-13T08:01:24.838Z,10.18
2023-05-13T08:03:51.425Z,11.38
2023-05-13T08:06:18.150Z,10.18
2023-05-13T08:08:44.619Z,11.40
2023-05-13T08:11:11.066Z,9.15
2023-05-13T08:13:40.520Z,12.20
2023-05-13T08:16:07.367Z,11.13
2023-05-13T08:18:33.919Z,8.27
2023-05-13T08:21:00.542Z,9.93
2023-05-13T08:23:40.304Z,9.77
2023-05-13T08:26:10.458Z,11.05
2023-05-13T08:28:38.019Z,9.57
2023-05-13T08:31:04.833Z,11.75
2023-05-13T08:33:32.068Z,10.98
2023-05-13T08:35:59.935Z,12.48
2023-05-13T08:38:26.623Z,11.02
2023-05-13T08:40:53.286Z,8.30
2023-05-13T08:43:20.490Z,11.43
2023-05-13T08:45:47.902Z,12.10
2023-05-13T08:48:16.336Z,11.38
2023-05-13T08:50:44.564Z,10.20
2023-05-13T08:53:12.899Z,12.30
2023-05-13T08:55:44.727Z,8.80
2023-05-13T08:58:11.820Z,9.50
2023-05-13T09:00:40.357Z,10.82
2023-05-13T09:03:07.192Z,10.80
2023-05-13T09:05:35.647Z,9.27
2023-05-13T09:08:08.868Z,10.85
2023-05-13T09:10:36.179Z,8.85
2023-05-13T09:13:02.822Z,7.93
2023-05-13T09:15:29.504Z,9.32
2023-05-13T09:18:06.389Z,9.18
2023-05-13T09:20:33.792Z,12.20
2023-05-13T09:23:06.436Z,9.43
2023-05-13T09:25:33.276Z,8.32
2023-05-13T09:28:01.757Z,8.10
2023-05-13T09:30:30.765Z,11.00
2023-05-13T09:33:14.999Z,10.13
2023-05-13T09:35:54.497Z,10.23
2023-05-13T09:38:32.647Z,9.98
2023-05-13T09:41:00.733Z,8.82
2023-05-13T09:43:32.037Z,8.05
2023-05-13T09:46:02.559Z,9.38
2023-05-13T09:48:31.395Z,9.30
2023-05-13T09:50:58.388Z,8.70
2023-05-13T09:53:29.063Z,8.90
2023-05-13T09:55:57.894Z,9.10
2023-05-13T09:58:28.070Z,9.63
2023-05-13T10:00:55.212Z,8.90
2023-05-13T10:03:21.877Z,11.00
2023-05-13T10:05:49.911Z,9.57
2023-05-13T10:08:18.269Z,8.88
2023-05-13T10:10:47.008Z,8.40
2023-05-13T10:13:20.653Z,9.35
2023-05-13T10:15:52.413Z,9.57
2023-05-13T10:18:21.062Z,8.90
2023-05-13T10:20:52.938Z,7.68
2023-05-13T10:23:21.284Z,8.25
2023-05-13T10:25:48.166Z,12.32
2023-05-13T10:28:15.168Z,10.50
2023-05-13T10:30:43.174Z,9.27
2023-05-13T10:33:10.413Z,8.30
2023-05-13T10:35:42.759Z,8.88
2023-05-13T10:38:16.451Z,9.73
2023-05-13T10:41:09.439Z,10.40
2023-05-13T10:43:36.484Z,10.38
2023-05-13T10:46:06.919Z,9.82
2023-05-13T10:48:50.902Z,10.10
2023-05-13T10:51:22.506Z,10.00
2023-05-13T10:53:51.793Z,7.85
2023-05-13T10:56:26.896Z,8.20
2023-05-13T10:59:04.435Z,9.07
2023-05-13T11:01:35.021Z,9.50
2023-05-13T11:04:03.199Z,8.63
2023-05-13T11:06:41.066Z,9.10
2023-05-13T11:09:11.743Z,7.45
2023-05-13T11:11:39.476Z,7.50
2023-05-13T11:14:23.071Z,8.27
2023-05-13T11:16:54.580Z,7.72
2023-05-13T11:19:23.750Z,8.40
2023-05-13T11:21:53.025Z,6.88
2023-05-13T11:24:21.605Z,9.77
2023-05-13T11:26:57.313Z,8.00
2023-05-13T11:29:37.013Z,8.75
2023-05-13T11:32:05.504Z,7.35
2023-05-13T11:34:33.406Z,6.60
2023-05-13T11:37:10.557Z,6.70
2023-05-13T11:39:40.452Z,6.20
2023-05-13T11:42:08.708Z,7.00
2023-05-13T11:44:35.676Z,5.95
2023-05-13T11:47:08.232Z,5.25
2023-05-13T11:49:42.916Z,6.10
2023-05-13T11:52:10.544Z,7.03
2023-05-13T11:54:57.679Z,7.13
2023-05-13T11:57:32.385Z,5.38
2023-05-13T12:00:00.803Z,6.32
2023-05-13T12:05:10.127Z,6.30
2023-05-13T12:07:38.053Z,5.70
2023-05-13T12:10:06.203Z,4.47
2023-05-13T12:12:38.603Z,4.80
2023-05-13T12:15:07.842Z,5.45
2023-05-13T12:17:35.099Z,5.05
2023-05-13T12:20:17.875Z,6.47
2023-05-13T12:22:44.353Z,6.55
2023-05-13T12:25:35.684Z,6.13
2023-05-13T12:28:19.758Z,4.28
2023-05-13T12:31:03.423Z,5.65
2023-05-13T12:33:43.515Z,5.82
2023-05-13T12:39:11.929Z,6.07
2023-05-13T12:44:10.749Z,4.97
2023-05-13T12:46:38.110Z,4.82
2023-05-13T12:49:05.886Z,4.88
2023-05-13T12:51:35.621Z,4.88
2023-05-13T12:54:02.088Z,4.43
2023-05-13T12:56:28.761Z,5.32
2023-05-13T12:58:55.319Z,4.78
2023-05-13T13:01:22.319Z,6.22
2023-05-13T13:03:49.220Z,3.88
2023-05-13T13:06:15.944Z,4.90
2023-05-13T13:08:42.504Z,4.57
2023-05-13T13:11:09.260Z,4.88
2023-05-13T13:13:38.795Z,4.90
2023-05-13T13:16:06.141Z,6.53
2023-05-13T13:18:32.576Z,3.80
2023-05-13T13:20:59.185Z,4.85
2023-05-13T13:23:25.718Z,4.15
2023-05-13T13:25:52.366Z,6.10
2023-05-13T13:28:18.802Z,4.13
2023-05-13T13:30:47.865Z,4.93
2023-05-13T13:33:15.646Z,5.53
2023-05-13T13:35:46.990Z,4.90
2023-05-13T13:38:14.400Z,4.65
2023-05-13T13:40:41.060Z,7.32
2023-05-13T13:43:08.043Z,4.63
2023-05-13T13:45:34.830Z,5.03
2023-05-13T13:48:01.677Z,5.70
2023-05-13T13:50:28.959Z,7.25
2023-05-13T13:52:55.446Z,4.20
2023-05-13T13:55:23.059Z,4.30
2023-05-13T13:57:50.511Z,6.00
2023-05-13T14:00:17.043Z,3.88
2023-05-13T14:02:44.156Z,6.72
2023-05-13T14:05:12.325Z,7.20
2023-05-13T14:07:38.967Z,4.63
2023-05-13T14:10:06.469Z,4.38
2023-05-13T14:12:33.193Z,5.60
2023-05-13T14:15:00.233Z,4.68
2023-05-13T14:17:26.989Z,5.20
2023-05-13T14:19:55.781Z,4.22
2023-05-13T14:22:23.645Z,7.78
2023-05-13T14:24:51.845Z,3.75
2023-05-13T14:27:19.005Z,7.25
2023-05-13T14:29:47.476Z,4.45
2023-05-13T14:32:13.998Z,3.25
2023-05-13T14:34:40.375Z,3.92
2023-05-13T14:37:07.241Z,6.20
2023-05-13T14:39:33.722Z,4.55
2023-05-13T14:42:00.470Z,3.78
2023-05-13T14:44:26.858Z,4.03
2023-05-13T14:46:53.490Z,4.28
2023-05-13T14:49:19.891Z,7.10
2023-05-13T14:51:46.240Z,5.25
2023-05-13T14:54:12.805Z,4.22
2023-05-13T14:56:41.372Z,6.13
2023-05-13T14:59:07.944Z,3.15
2023-05-13T15:01:34.476Z,5.88
2023-05-13T15:04:01.117Z,4.90
2023-05-13T15:06:29.118Z,5.53
2023-05-13T15:08:56.305Z,4.15
2023-05-13T15:11:23.226Z,4.22
2023-05-13T15:13:49.741Z,4.25
2023-05-13T15:16:16.432Z,4.18
2023-05-13T15:18:43.055Z,4.88
2023-05-13T15:21:09.707Z,5.03
2023-05-13T15:23:36.236Z,4.32
2023-05-13T15:26:02.789Z,3.40
2023-05-13T15:28:29.284Z,4.10
2023-05-13T15:30:56.172Z,3.50
2023-05-13T15:33:22.741Z,4.60
2023-05-13T15:35:49.259Z,2.75
2023-05-13T15:38:15.663Z,3.53
2023-05-13T15:40:42.461Z,4.22
2023-05-13T15:43:08.877Z,5.30
2023-05-13T15:45:35.426Z,5.68
2023-05-13T15:48:02.021Z,3.35
2023-05-13T15:50:28.464Z,4.60
2023-05-13T15:52:55.274Z,4.28
2023-05-13T15:55:22.263Z,4.35
2023-05-13T15:57:50.345Z,5.75
2023-05-13T16:00:17.800Z,6.32
2023-05-13T16:02:44.472Z,6.15
2023-05-13T16:05:19.063Z,5.57
2023-05-13T16:07:45.768Z,6.43
2023-05-13T16:10:12.212Z,5.00
2023-05-13T16:12:38.939Z,8.00
2023-05-13T16:15:06.399Z,6.10
2023-05-13T16:17:33.235Z,5.15
2023-05-13T16:19:59.977Z,5.10
2023-05-13T16:22:36.891Z,5.22
2023-05-13T16:25:10.512Z,6.18
2023-05-13T16:27:39.605Z,6.38
2023-05-13T16:30:07.410Z,6.10
2023-05-13T16:32:34.748Z,8.50
2023-05-13T16:35:01.606Z,6.93
2023-05-13T16:37:28.810Z,9.57
2023-05-13T16:39:55.291Z,9.60
2023-05-13T16:42:22.045Z,8.07
2023-05-13T16:44:48.495Z,7.65
2023-05-13T16:47:15.063Z,8.93
2023-05-13T16:49:42.495Z,8.05
2023-05-13T16:52:09.148Z,7.85
2023-05-13T16:54:35.585Z,12.63
2023-05-13T16:57:02.129Z,30.02
2023-05-13T16:59:28.830Z,10.98
2023-05-13T17:01:55.771Z,6.22
2023-05-13T17:04:22.236Z,5.97
2023-05-13T17:06:49.090Z,5.53
2023-05-13T17:09:16.121Z,8.90
2023-05-13T17:11:42.627Z,6.78
2023-05-13T17:14:09.030Z,6.85
2023-05-13T17:16:35.591Z,8.73
2023-05-13T17:19:02.027Z,5.30
2023-05-13T17:21:28.453Z,7.53
2023-05-13T17:23:54.933Z,6.97
2023-05-13T17:26:22.121Z,6.40
2023-05-13T17:28:49.635Z,6.63
2023-05-13T17:31:16.377Z,6.47
2023-05-13T17:33:42.872Z,8.25
2023-05-13T17:36:09.724Z,5.57
2023-05-13T17:38:36.295Z,5.45
2023-05-13T17:41:02.734Z,6.50
2023-05-13T17:43:29.181Z,10.77
2023-05-13T17:45:55.814Z,7.22
2023-05-13T17:48:22.343Z,5.30
2023-05-13T17:50:48.921Z,5.90
2023-05-13T17:53:15.367Z,22.55
2023-05-13T17:55:41.874Z,26.55
2023-05-13T17:58:08.272Z,8.90
2023-05-13T18:00:34.668Z,8.52
2023-05-13T18:03:01.134Z,6.70
2023-05-13T18:05:27.739Z,9.48
2023-05-13T18:07:54.295Z,6.32
2023-05-13T18:10:21.181Z,6.97
2023-05-13T18:12:47.811Z,8.38
2023-05-13T18:15:14.227Z,8.38
2023-05-13T18:17:40.922Z,5.68
2023-05-13T18:20:08.089Z,7.50
2023-05-13T18:22:34.888Z,6.63
2023-05-13T18:25:01.332Z,5.93
2023-05-13T18:27:28.009Z,7.65
2023-05-13T18:29:54.456Z,6.18
2023-05-13T18:32:20.937Z,8.45
2023-05-13T18:34:47.339Z,6.78
2023-05-13T18:37:15.049Z,6.30
2023-05-13T18:39:43.437Z,5.72
2023-05-13T18:42:10.291Z,6.07
2023-05-13T18:44:36.659Z,6.28
2023-05-13T18:47:04.766Z,6.18
2023-05-13T18:49:32.685Z,5.57
2023-05-13T18:51:59.238Z,5.38
2023-05-13T18:54:27.850Z,5.18
2023-05-13T18:56:54.989Z,6.22
2023-05-13T18:59:21.739Z,5.10
2023-05-13T19:01:48.291Z,6.47
2023-05-13T19:04:15.319Z,9.57
2023-05-13T19:06:42.079Z,6.90
2023-05-13T19:09:08.508Z,6.72
2023-05-13T19:11:34.977Z,6.55
2023-05-13T19:14:02.275Z,5.32
2023-05-13T19:16:28.714Z,5.93
2023-05-13T19:18:55.377Z,5.50
2023-05-13T19:21:24.627Z,7.78
2023-05-13T19:23:51.088Z,7.05
2023-05-13T19:26:17.579Z,4.93
2023-05-13T19:28:46.083Z,6.88
2023-05-13T19:31:12.671Z,6.35
2023-05-13T19:33:42.931Z,11.45
2023-05-13T19:36:11.248Z,5.40
2023-05-13T19:38:37.625Z,6.05
2023-05-13T19:41:04.044Z,6.38
2023-05-13T19:43:30.435Z,10.13
2023-05-13T19:45:57.520Z,6.40
2023-05-13T19:48:23.958Z,5.72
2023-05-13T19:50:53.386Z,6.30
2023-05-13T19:53:21.456Z,10.27
2023-05-13T19:55:47.980Z,8.05
2023-05-13T19:58:14.401Z,8.15
2023-05-13T20:00:40.791Z,8.40
2023-05-13T20:03:07.413Z,7.00
2023-05-13T20:05:33.865Z,7.47
2023-05-13T20:08:00.331Z,6.57
2023-05-13T20:10:26.712Z,6.65
2023-05-13T20:12:53.253Z,8.65
2023-05-13T20:15:19.761Z,6.93
2023-05-13T20:17:46.474Z,9.25
2023-05-13T20:20:13.642Z,7.32
2023-05-13T20:22:40.209Z,8.32
2023-05-13T20:25:07.370Z,7.72
2023-05-13T20:27:33.751Z,8.88
2023-05-13T20:30:01.140Z,8.40
2023-05-13T20:32:27.769Z,9.18
2023-05-13T20:34:54.642Z,7.22
2023-05-13T20:37:23.916Z,8.93
2023-05-13T20:39:51.022Z,10.07
2023-05-13T20:42:17.532Z,8.93
2023-05-13T20:44:45.849Z,8.35
2023-05-13T20:47:12.960Z,8.43
2023-05-13T20:49:43.860Z,7.88
2023-05-13T20:52:11.307Z,11.65
2023-05-13T20:54:37.940Z,8.07
2023-05-13T20:57:04.773Z,9.55
2023-05-13T20:59:31.445Z,9.38
2023-05-13T21:01:58.106Z,9.00
2023-05-13T21:04:27.198Z,8.98
2023-05-13T21:06:53.795Z,9.07
2023-05-13T21:09:20.335Z,10.48
2023-05-13T21:11:46.769Z,10.70
2023-05-13T21:14:13.239Z,9.05
2023-05-13T21:16:39.952Z,9.85
2023-05-13T21:19:06.575Z,9.65
2023-05-13T21:21:33.025Z,9.45
2023-05-13T21:23:59.379Z,9.50
2023-05-13T21:26:26.058Z,9.60
2023-05-13T21:28:52.621Z,12.20
2023-05-13T21:31:19.098Z,11.05
2023-05-13T21:33:45.567Z,10.77
2023-05-13T21:36:11.945Z,9.77
2023-05-13T21:38:39.565Z,11.80
2023-05-13T21:41:05.915Z,10.82
2023-05-13T21:43:32.336Z,11.32
2023-05-13T21:45:59.868Z,11.45
2023-05-13T21:48:26.309Z,10.95
2023-05-13T21:50:52.742Z,11.07
2023-05-13T21:53:19.194Z,11.98
2023-05-13T21:55:45.680Z,12.52
2023-05-13T21:58:12.340Z,11.32
2023-05-13T22:00:38.791Z,10.93
2023-05-13T22:03:06.060Z,13.70
2023-05-13T22:05:32.612Z,10.93
2023-05-13T22:08:00.130Z,11.73
2023-05-13T22:10:26.665Z,11.48
2023-05-13T22:12:53.021Z,11.18
2023-05-13T22:15:19.446Z,13.73
2023-05-13T22:17:46.797Z,11.32
2023-05-13T22:22:41.536Z,12.20
2023-05-13T22:25:08.346Z,13.43
2023-05-13T22:27:34.773Z,12.63
2023-05-13T22:30:01.325Z,11.70
2023-05-13T22:32:27.835Z,13.77
2023-05-13T22:34:54.533Z,10.57
2023-05-13T22:37:21.150Z,10.57
2023-05-13T22:39:47.567Z,11.43
2023-05-13T22:42:14.032Z,12.40
2023-05-13T22:44:40.486Z,12.55
2023-05-13T22:47:07.239Z,11.35
2023-05-13T22:49:33.782Z,12.23
2023-05-13T22:52:00.143Z,12.70
2023-05-13T22:54:26.573Z,12.75
2023-05-13T22:56:52.936Z,13.73
2023-05-13T22:59:19.317Z,14.60
2023-05-13T23:01:45.844Z,11.10
2023-05-13T23:04:12.317Z,14.07
2023-05-13T23:06:38.864Z,13.70
2023-05-13T23:09:05.643Z,14.57
2023-05-13T23:11:31.999Z,13.13
2023-05-13T23:13:58.446Z,14.35
2023-05-13T23:16:24.877Z,14.05
2023-05-13T23:18:51.302Z,13.93
2023-05-13T23:21:18.034Z,13.02
2023-05-13T23:23:44.417Z,14.88
2023-05-13T23:26:10.909Z,13.88
2023-05-13T23:28:37.288Z,13.65
2023-05-13T23:31:03.856Z,15.13
2023-05-13T23:33:30.344Z,17.73
2023-05-13T23:35:56.807Z,13.70
2023-05-13T23:38:23.996Z,15.32
2023-05-13T23:40:51.402Z,14.73
2023-05-13T23:43:17.875Z,14.98
2023-05-13T23:45:46.053Z,16.38
2023-05-13T23:48:12.773Z,13.45
2023-05-13T23:50:41.438Z,16.67
2023-05-13T23:53:10.456Z,14.50
2023-05-13T23:55:36.977Z,15.15
2023-05-13T23:58:03.761Z,14.13
